.
WxDataArchive / Data Records for 2008-11-04
2008-11-03 November 2008 2008-11-05

Data Records for Tuesday, 04 November 2008

Time	Temp	Chill	HIndex	Humid	Dewpt	 Wind 	HiWind	WindDir	Rain 	Barom 
-----	----	-----	------	-----	-----	------	------	-------	-----	----- 
00:00	47.3	47.3	47.3	82	42.1	0	0	---	0.00	30.182 
00:05	47.3	47.3	47.3	82	42.1	0	0	---	0.00	30.180 
00:10	47.1	47.1	47.1	82	41.9	0	0	---	0.00	30.181 
00:15	47.0	47.0	47.0	82	41.8	0	0	---	0.00	30.181 
00:20	46.8	46.8	46.8	82	41.6	0	0	---	0.00	30.181 
00:25	46.8	46.8	46.8	82	41.6	0	0	---	0.00	30.181 
00:30	46.7	46.7	46.7	82	41.5	0	0	---	0.00	30.180 
00:35	46.5	46.5	46.5	82	41.3	0	0	---	0.00	30.179 
00:40	46.4	46.4	46.4	82	41.2	0	0	---	0.00	30.178 
00:45	46.2	46.2	46.2	82	41.0	0	0	---	0.00	30.173 
00:50	46.0	46.0	46.0	82	40.8	0	0	---	0.00	30.171 
00:55	45.8	45.8	45.8	83	40.9	0	0	---	0.00	30.170 
01:00	45.7	45.7	45.7	83	40.8	0	0	---	0.00	30.169 
01:05	45.5	45.5	45.5	83	40.6	0	0	---	0.00	30.167 
01:10	45.4	45.4	45.4	84	40.9	0	0	---	0.00	30.168 
01:15	45.4	45.4	45.4	84	40.9	0	0	---	0.00	30.170 
01:20	45.2	45.2	45.2	85	41.0	0	0	---	0.00	30.171 
01:25	45.2	45.2	45.2	85	41.0	0	0	---	0.00	30.172 
01:30	45.2	45.2	45.2	85	41.0	0	0	---	0.00	30.171 
01:35	45.1	45.1	45.1	86	41.2	0	0	---	0.00	30.170 
01:40	45.1	45.1	45.1	86	41.2	0	0	---	0.00	30.170 
01:45	44.9	44.9	44.9	86	41.0	0	0	---	0.00	30.169 
01:50	44.8	44.8	44.8	86	40.9	0	0	---	0.00	30.170 
01:55	44.8	44.8	44.8	86	40.9	0	0	---	0.00	30.170 
02:00	44.6	44.6	44.6	87	41.0	0	0	---	0.00	30.172 
02:05	44.6	44.6	44.6	87	41.0	0	0	---	0.00	30.173 
02:10	44.6	44.6	44.6	87	41.0	0	0	---	0.00	30.175 
02:15	44.5	44.5	44.5	87	40.9	0	0	---	0.00	30.177 
02:20	44.6	44.6	44.6	87	41.0	0	0	---	0.00	30.178 
02:25	44.6	44.6	44.6	87	41.0	0	0	---	0.00	30.178 
02:30	44.6	44.6	44.6	87	41.0	0	0	---	0.00	30.178 
02:35	44.8	44.8	44.8	88	41.5	0	0	---	0.00	30.179 
02:40	44.8	44.8	44.8	87	41.2	0	0	---	0.00	30.178 
02:45	44.6	44.6	44.6	87	41.0	0	0	---	0.00	30.178 
02:50	44.6	44.6	44.6	88	41.3	0	0	---	0.00	30.178 
02:55	44.6	44.6	44.6	88	41.3	0	0	---	0.00	30.176 
03:00	44.6	44.6	44.6	87	41.0	0	0	---	0.00	30.173 
03:05	44.6	44.6	44.6	87	41.0	0	0	---	0.00	30.175 
03:10	44.5	44.5	44.5	87	40.9	0	0	---	0.00	30.175 
03:15	44.5	44.5	44.5	87	40.9	0	0	---	0.00	30.176 
03:20	44.5	44.5	44.5	88	41.2	0	0	---	0.00	30.177 
03:25	44.6	44.6	44.6	88	41.3	0	0	---	0.00	30.176 
03:30	44.6	44.6	44.6	88	41.3	0	0	---	0.00	30.176 
03:35	44.8	44.8	44.8	88	41.5	0	0	---	0.00	30.176 
03:40	44.9	44.9	44.9	88	41.6	0	0	---	0.00	30.174 
03:45	45.1	45.1	45.1	87	41.5	0	0	---	0.00	30.170 
03:50	45.1	45.1	45.1	87	41.5	0	0	---	0.00	30.168 
03:55	45.2	45.2	45.2	87	41.6	0	0	---	0.00	30.167 
04:00	45.2	45.2	45.2	87	41.6	0	0	---	0.00	30.167 
04:05	45.2	45.2	45.2	87	41.6	0	0	---	0.00	30.168 
04:10	45.2	45.2	45.2	87	41.6	0	0	---	0.00	30.169 
04:15	45.2	45.2	45.2	87	41.6	0	0	---	0.00	30.169 
04:20	45.2	45.2	45.2	86	41.3	0	0	---	0.00	30.169 
04:25	45.2	45.2	45.2	86	41.3	0	0	---	0.00	30.168 
04:30	45.2	45.2	45.2	86	41.3	0	0	---	0.00	30.170 
04:35	45.1	45.1	45.1	86	41.2	0	0	---	0.00	30.173 
04:40	45.1	45.1	45.1	86	41.2	0	0	---	0.00	30.173 
04:45	44.9	44.9	44.9	86	41.0	0	0	---	0.00	30.176 
04:50	44.8	44.8	44.8	86	40.9	0	0	---	0.00	30.179 
04:55	44.6	44.6	44.6	86	40.7	0	0	---	0.00	30.179 
05:00	44.5	44.5	44.5	86	40.6	0	0	---	0.00	30.180 
05:05	44.3	44.3	44.3	86	40.4	0	0	---	0.00	30.186 
05:10	44.2	44.2	44.2	86	40.3	0	0	---	0.00	30.186 
05:15	44.1	44.1	44.1	87	40.5	0	0	---	0.00	30.187 
05:20	43.9	43.9	43.9	87	40.3	0	0	---	0.00	30.187 
05:25	43.9	43.9	43.9	87	40.3	0	0	---	0.00	30.187 
05:30	43.8	43.8	43.8	88	40.5	0	0	---	0.00	30.186 
05:35	43.8	43.8	43.8	88	40.5	0	0	---	0.00	30.185 
05:40	43.6	43.6	43.6	88	40.3	0	0	---	0.00	30.184 
05:45	43.6	43.6	43.6	88	40.3	0	0	---	0.00	30.184 
05:50	43.5	43.5	43.5	88	40.2	0	0	---	0.00	30.183 
05:55	43.5	43.5	43.5	88	40.2	0	0	---	0.00	30.184 
06:00	43.3	43.3	43.3	88	40.0	0	0	---	0.00	30.186 
06:05	43.3	43.3	43.3	88	40.0	0	0	---	0.00	30.190 
06:10	43.3	43.3	43.3	88	40.0	0	0	---	0.00	30.190 
06:15	43.3	43.3	43.3	89	40.3	0	0	---	0.00	30.190 
06:20	43.3	43.3	43.3	89	40.3	0	0	---	0.00	30.189 
06:25	43.5	43.5	43.5	89	40.5	0	0	---	0.00	30.189 
06:30	43.5	43.5	43.5	89	40.5	0	0	---	0.00	30.188 
06:35	43.5	43.5	43.5	89	40.5	0	0	---	0.00	30.186 
06:40	43.5	43.5	43.5	89	40.5	0	0	---	0.00	30.186 
06:45	43.5	43.5	43.5	89	40.5	0	0	---	0.00	30.185 
06:50	43.5	43.5	43.5	89	40.5	0	0	---	0.00	30.186 
06:55	43.6	43.6	43.6	89	40.6	0	0	---	0.00	30.187 
07:00	43.6	43.6	43.6	89	40.6	0	0	---	0.00	30.189 
07:05	43.8	43.8	43.8	89	40.8	0	0	---	0.00	30.192 
07:10	43.8	43.8	43.8	89	40.8	0	0	---	0.00	30.193 
07:15	43.8	43.8	43.8	89	40.8	0	0	---	0.00	30.194 
07:20	43.8	43.8	43.8	89	40.8	0	0	---	0.00	30.195 
07:25	43.9	43.9	43.9	90	41.2	0	0	---	0.00	30.194 
07:30	43.9	43.9	43.9	90	41.2	0	0	---	0.00	30.195 
07:35	44.1	44.1	44.1	90	41.4	0	0	---	0.00	30.195 
07:40	44.3	44.3	44.3	90	41.6	0	0	---	0.00	30.195 
07:45	44.5	44.5	44.5	89	41.5	0	0	---	0.00	30.194 
07:50	44.8	44.8	44.8	90	42.0	0	0	---	0.00	30.194 
07:55	45.1	45.1	45.1	89	42.1	0	0	---	0.00	30.196 
08:00	45.5	45.5	45.5	89	42.4	0	0	---	0.00	30.195 
08:05	46.1	46.1	46.1	89	43.0	0	0	---	0.00	30.199 
08:10	47.0	47.0	47.0	88	43.6	0	0	---	0.00	30.197 
08:15	48.3	48.3	48.3	83	43.4	0	0	---	0.00	30.198 
08:20	49.8	49.8	49.8	79	43.6	0	1	248	0.00	30.198 
08:25	51.3	51.3	51.3	75	43.6	0	2	248	0.00	30.196 
08:30	52.6	52.6	52.6	70	43.1	0	1	248	0.00	30.197 
08:35	53.5	53.5	53.5	67	42.8	0	1	248	0.00	30.195 
08:40	54.2	54.2	54.2	66	43.1	0	1	248	0.00	30.198 
08:45	54.7	54.7	54.7	65	43.2	0	1	248	0.00	30.198 
08:50	55.1	55.1	55.1	65	43.5	0	1	248	0.00	30.197 
08:55	55.3	55.3	55.3	65	43.7	0	0	---	0.00	30.196 
09:00	55.7	55.7	55.7	65	44.1	0	0	---	0.00	30.198 
09:05	56.5	56.5	56.5	62	43.6	0	1	248	0.00	30.201 
09:10	57.2	57.2	57.2	60	43.4	0	1	248	0.00	30.202 
09:15	57.8	57.8	57.8	59	43.6	0	1	248	0.00	30.201 
09:20	58.3	58.3	58.3	59	44.0	0	1	248	0.00	30.200 
09:25	58.4	58.4	58.4	57	43.2	0	1	248	0.00	30.200 
09:30	58.7	58.7	58.7	58	44.0	0	1	248	0.00	30.199 
09:35	59.2	59.2	59.2	56	43.5	0	1	248	0.00	30.199 
09:40	59.6	59.6	59.6	54	42.9	0	3	248	0.00	30.198 
09:45	60.1	60.1	60.1	54	43.4	1	4	270	0.00	30.198 
09:50	60.4	60.4	60.4	54	43.7	0	2	270	0.00	30.198 
09:55	60.9	60.9	60.9	53	43.7	0	1	270	0.00	30.195 
10:00	61.5	61.5	61.5	52	43.7	0	1	270	0.00	30.195 
10:05	62.0	62.0	62.0	51	43.7	0	1	270	0.00	30.195 
10:10	62.4	62.4	62.4	50	43.5	0	2	270	0.00	30.192 
10:15	62.7	62.7	62.7	49	43.3	0	2	248	0.00	30.191 
10:20	63.1	63.1	63.1	49	43.6	0	2	270	0.00	30.192 
10:25	63.4	63.4	63.4	48	43.4	0	4	270	0.00	30.192 
10:30	63.4	63.4	63.4	48	43.4	1	3	248	0.00	30.190 
10:35	63.5	63.5	63.5	47	42.9	1	4	248	0.00	30.187 
10:40	63.9	63.9	63.9	48	43.8	0	2	315	0.00	30.187 
10:45	64.0	64.0	64.0	46	42.8	1	3	248	0.00	30.185 
10:50	64.2	64.2	64.2	46	43.0	1	5	248	0.00	30.185 
10:55	64.5	64.5	64.5	47	43.8	1	3	248	0.00	30.184 
11:00	64.8	64.8	64.8	47	44.1	0	1	248	0.00	30.183 
11:05	65.3	65.3	65.3	44	42.8	1	5	248	0.00	30.182 
11:10	65.6	65.6	65.6	44	43.1	1	2	248	0.00	30.181 
11:15	66.0	66.0	66.0	42	42.2	2	5	248	0.00	30.177 
11:20	66.1	66.1	66.1	44	43.5	1	4	248	0.00	30.174 
11:25	66.4	66.4	66.4	43	43.2	1	6	248	0.00	30.170 
11:30	66.6	66.6	66.6	43	43.4	1	4	248	0.00	30.169 
11:35	66.8	66.8	66.8	41	42.3	2	6	248	0.00	30.166 
11:40	66.9	66.9	66.9	41	42.4	1	3	248	0.00	30.164 
11:45	67.4	67.4	67.4	42	43.5	1	4	248	0.00	30.162 
11:50	67.8	67.8	67.8	45	45.7	1	4	248	0.00	30.161 
11:55	67.9	67.9	67.9	39	42.0	2	5	248	0.00	30.157 
12:00	68.1	68.1	68.1	39	42.2	2	4	248	0.00	30.152 
12:05	68.4	68.4	68.4	40	43.1	1	6	248	0.00	30.151 
12:10	68.4	68.4	68.4	39	42.5	2	5	248	0.00	30.150 
12:15	68.6	68.6	68.6	39	42.6	2	6	248	0.00	30.147 
12:20	68.6	68.6	68.6	40	43.3	2	7	248	0.00	30.144 
12:25	68.8	68.8	68.8	40	43.5	1	3	270	0.00	30.140 
12:30	69.1	69.1	69.1	41	44.4	1	3	292	0.00	30.136 
12:35	69.4	69.4	69.4	41	44.7	1	3	248	0.00	30.135 
12:40	69.6	69.6	69.6	37	42.2	2	6	248	0.00	30.132 
12:45	69.6	69.6	69.6	38	42.9	2	5	248	0.00	30.128 
12:50	69.8	69.8	69.8	37	42.3	1	4	248	0.00	30.126 
12:55	69.8	69.8	69.8	38	43.0	1	4	248	0.00	30.122 
13:00	69.9	69.9	69.9	37	42.4	2	4	248	0.00	30.120 
13:05	70.1	70.1	70.1	40	44.6	1	2	248	0.00	30.120 
13:10	70.3	70.3	70.3	38	43.5	0	3	248	0.00	30.120 
13:15	70.4	70.4	70.4	35	41.4	1	5	225	0.00	30.119 
13:20	70.4	70.4	70.4	36	42.2	2	5	248	0.00	30.119 
13:25	70.4	70.4	70.4	35	41.4	2	6	270	0.00	30.117 
13:30	70.4	70.4	70.4	37	42.9	1	6	248	0.00	30.116 
13:35	70.6	70.6	70.6	35	41.6	1	5	248	0.00	30.113 
13:40	70.8	70.8	70.8	35	41.8	2	5	270	0.00	30.110 
13:45	70.8	70.8	70.8	36	42.5	1	3	248	0.00	30.105 
13:50	70.8	70.8	70.8	36	42.5	0	3	248	0.00	30.105 
13:55	70.9	70.9	70.9	33	40.3	1	4	248	0.00	30.103 
14:00	70.9	70.9	70.9	34	41.1	2	11	248	0.00	30.102 
14:05	70.9	70.9	70.9	33	40.3	2	7	248	0.00	30.101 
14:10	71.1	71.1	71.1	34	41.3	1	4	248	0.00	30.099 
14:15	71.3	71.3	71.3	32	39.9	1	4	270	0.00	30.096 
14:20	71.3	71.3	71.3	33	40.7	1	4	225	0.00	30.096 
14:25	71.3	71.3	71.3	32	39.9	1	3	248	0.00	30.092 
14:30	71.3	71.3	71.3	32	39.9	1	3	248	0.00	30.092 
14:35	71.3	71.3	71.3	31	39.1	2	4	248	0.00	30.091 
14:40	71.3	71.3	71.3	31	39.1	1	4	248	0.00	30.089 
14:45	71.5	71.5	71.5	33	40.9	0	2	248	0.00	30.088 
14:50	71.5	71.5	71.5	33	40.9	1	5	90	0.00	30.086 
14:55	71.6	71.6	71.6	30	38.5	2	6	248	0.00	30.086 
15:00	72.0	72.0	72.0	31	39.7	1	4	225	0.00	30.086 
15:05	72.3	72.3	72.3	31	40.0	0	1	248	0.00	30.086 
15:10	72.3	72.3	72.3	30	39.1	1	5	248	0.00	30.084 
15:15	72.5	72.5	72.5	29	38.4	1	5	248	0.00	30.085 
15:20	72.5	72.5	72.5	30	39.3	1	4	248	0.00	30.083 
15:25	72.5	72.5	72.5	30	39.3	0	2	248	0.00	30.082 
15:30	72.1	72.1	72.1	31	39.8	1	3	90	0.00	30.083 
15:35	71.6	71.6	71.6	31	39.4	1	3	90	0.00	30.082 
15:40	71.5	71.5	71.5	29	37.6	1	4	270	0.00	30.083 
15:45	71.3	71.3	71.3	31	39.1	1	3	248	0.00	30.082 
15:50	71.3	71.3	71.3	32	39.9	0	1	248	0.00	30.081 
15:55	71.3	71.3	71.3	31	39.1	1	2	248	0.00	30.080 
16:00	70.9	70.9	70.9	31	38.7	1	2	270	0.00	30.077 
16:05	70.6	70.6	70.6	31	38.5	1	4	0	0.00	30.077 
16:10	70.3	70.3	70.3	32	39.0	1	4	225	0.00	30.078 
16:15	69.9	69.9	69.9	33	39.5	1	4	225	0.00	30.080 
16:20	69.8	69.8	69.8	32	38.6	1	3	248	0.00	30.081 
16:25	69.6	69.6	69.6	34	40.0	0	1	248	0.00	30.082 
16:30	69.4	69.4	69.4	32	38.3	0	2	248	0.00	30.083 
16:35	69.3	69.3	69.3	32	38.2	0	3	248	0.00	30.083 
16:40	69.1	69.1	69.1	33	38.8	0	3	248	0.00	30.082 
16:45	69.1	69.1	69.1	32	38.0	0	2	248	0.00	30.080 
16:50	68.9	68.9	68.9	32	37.8	0	1	248	0.00	30.080 
16:55	68.6	68.6	68.6	33	38.3	0	0	---	0.00	30.080 
17:00	68.1	68.1	68.1	34	38.7	0	0	---	0.00	30.082 
17:05	67.6	67.6	67.6	35	39.0	0	0	---	0.00	30.086 
17:10	66.9	66.9	66.9	37	39.8	0	1	248	0.00	30.087 
17:15	66.3	66.3	66.3	37	39.2	0	0	---	0.00	30.088 
17:20	65.6	65.6	65.6	38	39.3	0	0	---	0.00	30.086 
17:25	65.0	65.0	65.0	38	38.8	0	0	---	0.00	30.089 
17:30	64.3	64.3	64.3	40	39.5	0	0	---	0.00	30.091 
17:35	63.7	63.7	63.7	42	40.2	0	0	---	0.00	30.093 
17:40	62.9	62.9	62.9	44	40.6	0	0	---	0.00	30.093 
17:45	62.1	62.1	62.1	46	41.1	0	0	---	0.00	30.095 
17:50	61.3	61.3	61.3	48	41.4	0	0	---	0.00	30.096 
17:55	60.5	60.5	60.5	48	40.7	0	0	---	0.00	30.096 
18:00	59.9	59.9	59.9	50	41.2	0	0	---	0.00	30.098 
18:05	59.2	59.2	59.2	51	41.1	0	0	---	0.00	30.096 
18:10	58.6	58.6	58.6	52	41.0	0	0	---	0.00	30.098 
18:15	58.0	58.0	58.0	54	41.4	0	0	---	0.00	30.099 
18:20	57.3	57.3	57.3	55	41.3	0	0	---	0.00	30.099 
18:25	56.7	56.7	56.7	56	41.2	0	0	---	0.00	30.102 
18:30	56.3	56.3	56.3	57	41.3	0	0	---	0.00	30.104 
18:35	55.7	55.7	55.7	57	40.7	0	0	---	0.00	30.105 
18:40	55.4	55.4	55.4	58	40.9	0	0	---	0.00	30.107 
18:45	55.0	55.0	55.0	58	40.5	0	0	---	0.00	30.111 
18:50	54.5	54.5	54.5	59	40.5	0	0	---	0.00	30.112 
18:55	54.1	54.1	54.1	60	40.5	0	0	---	0.00	30.113 
19:00	53.6	53.6	53.6	61	40.5	0	0	---	0.00	30.114 
19:05	53.3	53.3	53.3	62	40.6	0	0	---	0.00	30.115 
19:10	52.9	52.9	52.9	63	40.7	0	0	---	0.00	30.114 
19:15	52.5	52.5	52.5	64	40.7	0	0	---	0.00	30.114 
19:20	52.2	52.2	52.2	65	40.8	0	0	---	0.00	30.113 
19:25	51.7	51.7	51.7	66	40.7	0	0	---	0.00	30.114 
19:30	51.4	51.4	51.4	67	40.8	0	0	---	0.00	30.115 
19:35	51.1	51.1	51.1	68	40.9	0	0	---	0.00	30.114 
19:40	50.8	50.8	50.8	68	40.6	0	0	---	0.00	30.113 
19:45	50.5	50.5	50.5	69	40.7	0	0	---	0.00	30.112 
19:50	50.4	50.4	50.4	70	41.0	0	0	---	0.00	30.111 
19:55	50.2	50.2	50.2	70	40.8	0	0	---	0.00	30.111 
20:00	50.1	50.1	50.1	70	40.7	0	0	---	0.00	30.111 
20:05	49.8	49.8	49.8	71	40.8	0	0	---	0.00	30.101 
20:10	49.6	49.6	49.6	71	40.6	0	0	---	0.00	30.102 
20:15	49.4	49.4	49.4	72	40.8	0	0	---	0.00	30.102 
20:20	49.1	49.1	49.1	72	40.5	0	0	---	0.00	30.104 
20:25	48.8	48.8	48.8	73	40.5	0	0	---	0.00	30.105 
20:30	48.6	48.6	48.6	73	40.3	0	0	---	0.00	30.106 
20:35	48.3	48.3	48.3	73	40.1	0	0	---	0.00	30.105 
20:40	48.0	48.0	48.0	74	40.1	0	0	---	0.00	30.106 
20:45	47.9	47.9	47.9	75	40.4	0	0	---	0.00	30.105 
20:50	47.6	47.6	47.6	75	40.1	0	0	---	0.00	30.104 
20:55	47.4	47.4	47.4	76	40.2	0	0	---	0.00	30.105 
21:00	47.3	47.3	47.3	76	40.1	0	0	---	0.00	30.107 
21:05	47.0	47.0	47.0	77	40.2	0	0	---	0.00	30.100 
21:10	46.8	46.8	46.8	78	40.3	0	0	---	0.00	30.100 
21:15	46.7	46.7	46.7	78	40.2	0	0	---	0.00	30.101 
21:20	46.5	46.5	46.5	78	40.0	0	0	---	0.00	30.102 
21:25	46.4	46.4	46.4	79	40.2	0	0	---	0.00	30.101 
21:30	46.2	46.2	46.2	79	40.1	0	0	---	0.00	30.098 
21:35	46.1	46.1	46.1	79	40.0	0	0	---	0.00	30.097 
21:40	46.0	46.0	46.0	79	39.9	0	0	---	0.00	30.096 
21:45	45.7	45.7	45.7	79	39.6	0	0	---	0.00	30.095 
21:50	45.5	45.5	45.5	79	39.4	0	0	---	0.00	30.094 
21:55	45.4	45.4	45.4	80	39.6	0	0	---	0.00	30.095 
22:00	45.2	45.2	45.2	81	39.7	0	0	---	0.00	30.094 
22:05	45.2	45.2	45.2	81	39.7	0	0	---	0.00	30.091 
22:10	45.1	45.1	45.1	81	39.6	0	0	---	0.00	30.090 
22:15	45.1	45.1	45.1	81	39.6	0	0	---	0.00	30.090 
22:20	44.8	44.8	44.8	82	39.6	0	0	---	0.00	30.090 
22:25	44.6	44.6	44.6	82	39.4	0	0	---	0.00	30.090 
22:30	44.6	44.6	44.6	82	39.4	0	0	---	0.00	30.089 
22:35	44.5	44.5	44.5	83	39.7	0	0	---	0.00	30.088 
22:40	44.3	44.3	44.3	83	39.5	0	0	---	0.00	30.087 
22:45	44.2	44.2	44.2	83	39.4	0	0	---	0.00	30.084 
22:50	44.1	44.1	44.1	83	39.3	0	0	---	0.00	30.083 
22:55	43.9	43.9	43.9	84	39.4	0	0	---	0.00	30.084 
23:00	43.8	43.8	43.8	84	39.3	0	0	---	0.00	30.082 
23:05	43.8	43.8	43.8	85	39.6	0	0	---	0.00	30.077 
23:10	43.6	43.6	43.6	85	39.4	0	0	---	0.00	30.076 
23:15	43.5	43.5	43.5	85	39.3	0	0	---	0.00	30.074 
23:20	43.5	43.5	43.5	85	39.3	0	0	---	0.00	30.074 
23:25	43.3	43.3	43.3	86	39.4	0	0	---	0.00	30.076 
23:30	43.3	43.3	43.3	86	39.4	0	0	---	0.00	30.076 
23:35	43.2	43.2	43.2	86	39.3	0	0	---	0.00	30.075 
23:40	43.2	43.2	43.2	86	39.3	0	0	---	0.00	30.075 
23:45	43.1	43.1	43.1	86	39.2	0	0	---	0.00	30.074 
23:50	43.1	43.1	43.1	86	39.2	0	0	---	0.00	30.074 
23:55	42.9	42.9	42.9	86	39.0	0	0	---	0.00	30.073 

CoCoRaHS
IN-AL-39
A2 Web Hosting
Creative Commons License
GoDaddy
Look for:

loaded 2017-10-19 19:56:25 • last modified 2010-11-18 10:43:29
Privacy PolicyDisclaimer
• wx.awcolley.com is powered by PmWiki v.2002016 •
• all content (unless otherwise noted) © 2017 A W Colley